createdAt,value
2018-02-04T00:00:29.625Z,0.00
2018-02-04T00:01:29.639Z,0.00
2018-02-04T00:02:29.649Z,0.00
2018-02-04T00:03:29.732Z,0.00
2018-02-04T00:04:29.725Z,0.00
2018-02-04T00:05:29.695Z,0.00
2018-02-04T00:06:29.697Z,0.00
2018-02-04T00:07:29.704Z,0.00
2018-02-04T00:08:29.740Z,0.00
2018-02-04T00:09:29.732Z,0.00
2018-02-04T00:10:29.764Z,0.00
2018-02-04T00:11:29.751Z,0.00
2018-02-04T00:12:29.775Z,0.00
2018-02-04T00:13:29.813Z,0.00
2018-02-04T00:14:29.876Z,0.00
2018-02-04T00:15:29.801Z,0.00
2018-02-04T00:16:29.815Z,0.00
2018-02-04T00:17:29.823Z,0.00
2018-02-04T00:18:29.836Z,0.00
2018-02-04T00:19:29.843Z,0.00
2018-02-04T00:20:29.854Z,0.00
2018-02-04T00:21:29.873Z,0.00
2018-02-04T00:22:29.935Z,0.00
2018-02-04T00:23:29.899Z,0.00
2018-02-04T00:24:29.988Z,0.00
2018-02-04T00:25:29.929Z,0.00
2018-02-04T00:26:29.940Z,0.00
2018-02-04T00:27:29.942Z,0.00
2018-02-04T00:28:29.950Z,0.00
2018-02-04T00:29:29.962Z,0.00
2018-02-04T00:30:29.970Z,0.00
2018-02-04T00:31:29.985Z,0.00
2018-02-04T00:32:30.159Z,0.00
2018-02-04T00:33:30.007Z,0.00
2018-02-04T00:34:30.041Z,0.00
2018-02-04T00:35:30.033Z,0.00
2018-02-04T00:36:30.042Z,0.00
2018-02-04T00:37:30.052Z,0.00
2018-02-04T00:38:30.065Z,0.00
2018-02-04T00:39:30.079Z,0.00
2018-02-04T00:40:30.086Z,0.00
2018-02-04T00:41:30.102Z,0.00
2018-02-04T00:42:30.130Z,0.00
2018-02-04T00:43:30.122Z,0.00
2018-02-04T00:44:30.145Z,0.00
2018-02-04T00:45:30.149Z,0.00
2018-02-04T00:46:30.161Z,0.00
2018-02-04T00:47:30.169Z,0.00
2018-02-04T00:48:30.181Z,0.00
2018-02-04T00:49:30.192Z,0.00
2018-02-04T00:50:30.204Z,0.00
2018-02-04T00:51:30.216Z,0.00
2018-02-04T00:52:30.228Z,0.00
2018-02-04T00:53:30.239Z,0.00
2018-02-04T00:54:30.252Z,0.00
2018-02-04T00:55:30.264Z,0.00
2018-02-04T00:56:30.275Z,0.00
2018-02-04T00:57:30.287Z,0.00
2018-02-04T00:58:30.298Z,0.00
2018-02-04T00:59:30.311Z,0.00
2018-02-04T01:00:30.321Z,0.00
2018-02-04T01:01:30.332Z,0.00
2018-02-04T01:02:30.344Z,0.00
2018-02-04T01:03:30.357Z,0.00
2018-02-04T01:04:30.370Z,0.00
2018-02-04T01:05:30.378Z,0.00
2018-02-04T01:06:30.390Z,0.00
2018-02-04T01:07:30.403Z,0.00
2018-02-04T01:08:30.413Z,0.00
2018-02-04T01:09:30.424Z,0.00
2018-02-04T01:10:30.438Z,0.00
2018-02-04T01:11:30.450Z,0.00
2018-02-04T01:12:30.458Z,0.00
2018-02-04T01:13:30.470Z,0.00
2018-02-04T01:14:30.484Z,0.00
2018-02-04T01:15:30.495Z,0.00
2018-02-04T01:16:30.506Z,0.00
2018-02-04T01:17:30.518Z,0.00
2018-02-04T01:18:30.529Z,0.00
2018-02-04T01:19:30.545Z,0.00
2018-02-04T01:20:30.551Z,0.00
2018-02-04T01:21:30.563Z,0.00
2018-02-04T01:22:30.576Z,0.00
2018-02-04T01:23:30.587Z,0.00
2018-02-04T01:24:30.598Z,0.00
2018-02-04T01:25:30.610Z,0.00
2018-02-04T01:26:30.633Z,0.00
2018-02-04T01:27:30.641Z,0.00
2018-02-04T01:28:30.646Z,0.00
2018-02-04T01:29:30.656Z,0.00
2018-02-04T01:30:30.668Z,0.00
2018-02-04T01:31:30.686Z,0.00
2018-02-04T01:32:30.698Z,0.00
2018-02-04T01:33:30.719Z,0.00
2018-02-04T01:34:30.716Z,0.00
2018-02-04T01:35:30.732Z,0.00
2018-02-04T01:36:30.742Z,0.00
2018-02-04T01:37:30.750Z,0.00
2018-02-04T01:38:30.763Z,0.00
2018-02-04T01:39:30.775Z,0.00
2018-02-04T01:40:30.786Z,0.00
2018-02-04T01:41:30.801Z,0.00
2018-02-04T01:42:30.811Z,0.00
2018-02-04T01:43:30.821Z,0.00
2018-02-04T01:44:30.833Z,0.00
2018-02-04T01:45:30.848Z,0.00
2018-02-04T01:46:30.856Z,0.00
2018-02-04T01:47:30.869Z,0.00
2018-02-04T01:48:30.883Z,0.00
2018-02-04T01:49:30.892Z,0.00
2018-02-04T01:50:30.904Z,0.00
2018-02-04T01:51:30.915Z,0.00
2018-02-04T01:52:30.925Z,0.00
2018-02-04T01:53:30.939Z,0.00
2018-02-04T01:54:30.948Z,0.00
2018-02-04T01:55:30.960Z,0.00
2018-02-04T01:56:30.970Z,0.00
2018-02-04T01:57:30.986Z,0.00
2018-02-04T01:58:30.996Z,0.00
2018-02-04T01:59:31.008Z,0.00
2018-02-04T02:00:31.017Z,0.00
2018-02-04T02:01:31.035Z,0.00
2018-02-04T02:02:31.039Z,0.00
2018-02-04T02:03:31.058Z,0.00
2018-02-04T02:04:31.061Z,0.00
2018-02-04T02:05:31.079Z,0.00
2018-02-04T02:06:31.086Z,0.00
2018-02-04T02:07:31.098Z,0.00
2018-02-04T02:08:31.108Z,0.00
2018-02-04T02:09:31.120Z,0.00
2018-02-04T02:10:31.131Z,0.00
2018-02-04T02:11:31.141Z,0.00
2018-02-04T02:12:31.151Z,0.00
2018-02-04T02:13:31.163Z,0.00
2018-02-04T02:14:31.175Z,0.00
2018-02-04T02:15:31.186Z,0.00
2018-02-04T02:16:31.197Z,0.00
2018-02-04T02:17:31.210Z,0.00
2018-02-04T02:18:31.224Z,0.00
2018-02-04T02:19:31.231Z,0.00
2018-02-04T02:20:31.243Z,0.00
2018-02-04T02:21:31.254Z,0.00
2018-02-04T02:22:31.267Z,0.00
2018-02-04T02:23:31.277Z,0.00
2018-02-04T02:24:31.286Z,0.00
2018-02-04T02:25:31.302Z,0.00
2018-02-04T02:26:31.310Z,0.00
2018-02-04T02:27:31.320Z,0.00
2018-02-04T02:28:31.331Z,0.00
2018-02-04T02:29:31.344Z,0.00
2018-02-04T02:30:31.354Z,0.00
2018-02-04T02:31:31.365Z,0.00
2018-02-04T02:32:31.375Z,0.00
2018-02-04T02:33:31.386Z,0.00
2018-02-04T02:34:31.399Z,0.00
2018-02-04T02:35:31.409Z,0.00
2018-02-04T02:36:31.421Z,0.00
2018-02-04T02:37:31.430Z,0.00
2018-02-04T02:38:31.442Z,0.00
2018-02-04T02:39:31.456Z,0.00
2018-02-04T02:40:31.470Z,0.00
2018-02-04T02:41:31.476Z,0.00
2018-02-04T02:42:31.485Z,0.00
2018-02-04T02:43:31.497Z,0.00
2018-02-04T02:44:31.515Z,0.00
2018-02-04T02:45:31.520Z,0.00
2018-02-04T02:46:31.531Z,0.00
2018-02-04T02:47:31.541Z,0.00
2018-02-04T02:48:31.554Z,0.00
2018-02-04T02:49:31.564Z,0.00
2018-02-04T02:50:31.575Z,0.00
2018-02-04T02:51:31.589Z,0.00
2018-02-04T02:52:31.597Z,0.00
2018-02-04T02:53:31.611Z,0.00
2018-02-04T02:54:31.620Z,0.00
2018-02-04T02:55:31.633Z,0.00
2018-02-04T02:56:31.643Z,0.00
2018-02-04T02:57:31.653Z,0.00
2018-02-04T02:58:31.665Z,0.00
2018-02-04T02:59:31.680Z,0.00
2018-02-04T03:00:31.687Z,0.00
2018-02-04T03:01:31.706Z,0.00
2018-02-04T03:02:31.706Z,0.00
2018-02-04T03:03:31.720Z,0.00
2018-02-04T03:04:31.731Z,0.00
2018-02-04T03:05:31.744Z,0.00
2018-02-04T03:06:31.757Z,0.00
2018-02-04T03:07:31.765Z,0.00
2018-02-04T03:08:31.773Z,0.00
2018-02-04T03:09:31.786Z,0.00
2018-02-04T03:10:31.805Z,0.00
2018-02-04T03:11:31.812Z,0.00
2018-02-04T03:12:31.821Z,0.00
2018-02-04T03:13:31.846Z,0.00
2018-02-04T03:14:31.841Z,0.00
2018-02-04T03:15:31.857Z,0.00
2018-02-04T03:16:31.866Z,0.00
2018-02-04T03:17:31.875Z,0.00
2018-02-04T03:18:31.888Z,0.00
2018-02-04T03:19:31.899Z,0.00
2018-02-04T03:20:31.913Z,0.00
2018-02-04T03:21:31.923Z,0.00
2018-02-04T03:22:31.960Z,0.00
2018-02-04T03:23:31.947Z,0.00
2018-02-04T03:24:31.953Z,0.00
2018-02-04T03:25:31.963Z,0.00
2018-02-04T03:26:31.978Z,0.00
2018-02-04T03:27:31.988Z,0.00
2018-02-04T03:28:32.038Z,0.00
2018-02-04T03:29:32.014Z,0.00
2018-02-04T03:30:32.024Z,0.00
2018-02-04T03:31:32.033Z,0.00
2018-02-04T03:32:32.040Z,0.00
2018-02-04T03:33:32.052Z,0.00
2018-02-04T03:34:32.064Z,0.00
2018-02-04T03:35:32.075Z,0.00
2018-02-04T03:36:32.083Z,0.00
2018-02-04T03:37:32.096Z,0.00
2018-02-04T03:38:32.117Z,0.00
2018-02-04T03:39:32.122Z,0.00
2018-02-04T03:40:32.133Z,0.00
2018-02-04T03:41:32.139Z,0.00
2018-02-04T03:42:32.155Z,0.00
2018-02-04T03:43:32.167Z,0.00
2018-02-04T03:44:32.175Z,0.00
2018-02-04T03:45:32.185Z,0.00
2018-02-04T03:46:32.198Z,0.00
2018-02-04T03:47:32.210Z,0.00
2018-02-04T03:48:32.217Z,0.00
2018-02-04T03:49:32.230Z,0.00
2018-02-04T03:50:32.241Z,0.00
2018-02-04T03:51:32.256Z,0.00
2018-02-04T03:52:32.270Z,0.00
2018-02-04T03:53:32.274Z,0.00
2018-02-04T03:54:32.289Z,0.00
2018-02-04T03:55:32.299Z,0.00
2018-02-04T03:56:32.311Z,0.00
2018-02-04T03:57:32.323Z,0.00
2018-02-04T03:58:32.333Z,0.00
2018-02-04T03:59:32.346Z,0.00
2018-02-04T04:00:32.357Z,0.00
2018-02-04T04:01:32.366Z,0.00
2018-02-04T04:02:32.377Z,0.00
2018-02-04T04:03:32.392Z,0.00
2018-02-04T04:04:32.403Z,0.00
2018-02-04T04:05:32.414Z,0.00
2018-02-04T04:06:32.426Z,0.00
2018-02-04T04:07:32.440Z,0.00
2018-02-04T04:08:32.448Z,0.00
2018-02-04T04:09:32.461Z,0.00
2018-02-04T04:10:32.472Z,0.00
2018-02-04T04:11:32.483Z,0.00
2018-02-04T04:12:32.496Z,0.00
2018-02-04T04:13:32.506Z,0.00
2018-02-04T04:14:32.514Z,0.00
2018-02-04T04:15:32.529Z,0.00
2018-02-04T04:16:32.537Z,0.00
2018-02-04T04:17:32.549Z,0.00
2018-02-04T04:18:32.561Z,0.00
2018-02-04T04:19:32.570Z,0.00
2018-02-04T04:20:32.584Z,0.00
2018-02-04T04:21:32.593Z,0.00
2018-02-04T04:22:32.609Z,0.00
2018-02-04T04:23:32.620Z,0.00
2018-02-04T04:24:32.629Z,0.00
2018-02-04T04:25:32.639Z,0.00
2018-02-04T04:26:32.649Z,0.00
2018-02-04T04:27:32.663Z,0.00
2018-02-04T04:28:32.670Z,0.00
2018-02-04T04:29:32.682Z,0.00
2018-02-04T04:30:32.696Z,0.00
2018-02-04T04:31:32.705Z,0.00
2018-02-04T04:32:32.717Z,0.00
2018-02-04T04:33:32.726Z,0.00
2018-02-04T04:34:32.740Z,0.00
2018-02-04T04:35:32.747Z,0.00
2018-02-04T04:36:32.759Z,0.00
2018-02-04T04:37:32.772Z,0.00
2018-02-04T04:38:32.780Z,0.00
2018-02-04T04:39:32.792Z,0.00
2018-02-04T04:40:32.805Z,0.00
2018-02-04T04:41:32.820Z,0.00
2018-02-04T04:42:32.837Z,0.00
2018-02-04T04:43:32.855Z,0.00
2018-02-04T04:44:32.849Z,0.00
2018-02-04T04:45:32.859Z,0.00
2018-02-04T04:46:32.873Z,0.00
2018-02-04T04:47:32.882Z,0.00
2018-02-04T04:48:32.894Z,0.00
2018-02-04T04:49:32.904Z,0.00
2018-02-04T04:50:32.913Z,0.00
2018-02-04T04:51:32.931Z,0.00
2018-02-04T04:52:32.938Z,0.00
2018-02-04T04:53:32.950Z,0.00
2018-02-04T04:54:32.962Z,0.00
2018-02-04T04:55:32.974Z,0.00
2018-02-04T04:56:32.983Z,0.00
2018-02-04T04:57:32.994Z,0.00
2018-02-04T04:58:33.004Z,0.00
2018-02-04T04:59:33.018Z,0.00
2018-02-04T05:00:33.027Z,0.00
2018-02-04T05:01:33.042Z,0.00
2018-02-04T05:02:33.057Z,0.00
2018-02-04T05:03:33.063Z,0.00
2018-02-04T05:04:33.072Z,0.00
2018-02-04T05:05:33.086Z,0.00
2018-02-04T05:06:33.094Z,0.00
2018-02-04T05:07:33.111Z,0.00
2018-02-04T05:08:33.117Z,0.00
2018-02-04T05:09:33.129Z,0.00
2018-02-04T05:10:33.139Z,0.00
2018-02-04T05:11:33.202Z,0.00
2018-02-04T05:12:33.164Z,0.00
2018-02-04T05:13:33.177Z,0.00
2018-02-04T05:14:33.185Z,0.00
2018-02-04T05:15:33.196Z,0.00
2018-02-04T05:16:33.210Z,0.00
2018-02-04T05:17:33.219Z,0.00
2018-02-04T05:18:33.234Z,0.00
2018-02-04T05:19:33.244Z,0.00
2018-02-04T05:20:33.256Z,0.00
2018-02-04T05:21:33.265Z,0.00
2018-02-04T05:22:33.277Z,0.00
2018-02-04T05:23:33.289Z,0.00
2018-02-04T05:24:33.298Z,0.00
2018-02-04T05:25:33.311Z,0.00
2018-02-04T05:26:33.324Z,0.00
2018-02-04T05:27:33.332Z,0.00
2018-02-04T05:28:33.341Z,0.00
2018-02-04T05:29:33.354Z,0.00
2018-02-04T05:30:33.370Z,0.00
2018-02-04T05:31:33.378Z,0.00
2018-02-04T05:32:33.389Z,0.00
2018-02-04T05:33:33.399Z,0.00
2018-02-04T05:34:33.412Z,0.00
2018-02-04T05:35:33.422Z,0.00
2018-02-04T05:36:33.433Z,0.00
2018-02-04T05:37:33.447Z,0.00
2018-02-04T05:38:33.456Z,0.00
2018-02-04T05:39:33.468Z,0.00
2018-02-04T05:40:33.479Z,0.00
2018-02-04T05:41:33.491Z,0.00
2018-02-04T05:42:33.501Z,0.00
2018-02-04T05:43:33.511Z,0.00
2018-02-04T05:44:33.522Z,0.00
2018-02-04T05:45:33.539Z,0.00
2018-02-04T05:46:33.546Z,0.00
2018-02-04T05:47:33.554Z,0.00
2018-02-04T05:48:33.569Z,0.00
2018-02-04T05:49:33.577Z,0.00
2018-02-04T05:50:33.592Z,0.00
2018-02-04T05:51:33.601Z,0.00
2018-02-04T05:52:33.612Z,0.00
2018-02-04T05:53:33.624Z,0.00
2018-02-04T05:54:33.635Z,0.00
2018-02-04T05:55:33.646Z,0.00
2018-02-04T05:56:33.655Z,0.00
2018-02-04T05:57:33.667Z,0.00
2018-02-04T05:58:33.680Z,0.00
2018-02-04T05:59:33.692Z,0.00
2018-02-04T06:00:33.701Z,0.00
2018-02-04T06:01:33.712Z,0.00
2018-02-04T06:02:33.726Z,0.00
2018-02-04T06:03:33.734Z,0.00
2018-02-04T06:04:33.747Z,0.00
2018-02-04T06:05:33.755Z,0.00
2018-02-04T06:06:33.768Z,0.00
2018-02-04T06:07:33.780Z,0.00
2018-02-04T06:08:33.787Z,0.00
2018-02-04T06:09:33.800Z,0.00
2018-02-04T06:10:33.814Z,0.00
2018-02-04T06:11:33.827Z,0.00
2018-02-04T06:12:33.832Z,0.00
2018-02-04T06:13:33.846Z,0.00
2018-02-04T06:14:33.862Z,0.00
2018-02-04T06:15:33.869Z,0.00
2018-02-04T06:16:33.881Z,0.00
2018-02-04T06:17:33.892Z,0.00
2018-02-04T06:18:33.900Z,0.00
2018-02-04T06:19:33.912Z,0.00
2018-02-04T06:20:33.922Z,0.00
2018-02-04T06:21:33.934Z,0.00
2018-02-04T06:22:33.946Z,4.00
2018-02-04T06:23:33.957Z,4.00
2018-02-04T06:24:33.969Z,4.00
2018-02-04T06:25:33.979Z,4.00
2018-02-04T06:26:33.991Z,4.00
2018-02-04T06:27:34.004Z,0.00
2018-02-04T06:28:34.023Z,0.00
2018-02-04T06:29:34.023Z,0.00
2018-02-04T06:30:34.034Z,4.00
2018-02-04T06:31:34.050Z,4.00
2018-02-04T06:32:34.057Z,4.00
2018-02-04T06:33:34.068Z,4.00
2018-02-04T06:34:34.096Z,4.00
2018-02-04T06:35:34.096Z,8.00
2018-02-04T06:36:34.101Z,8.00
2018-02-04T06:37:34.117Z,12.00
2018-02-04T06:38:34.124Z,12.00
2018-02-04T06:39:34.139Z,12.00
2018-02-04T06:40:34.147Z,16.00
2018-02-04T06:41:34.161Z,16.00
2018-02-04T06:42:34.171Z,20.00
2018-02-04T06:43:34.187Z,24.00
2018-02-04T06:44:34.195Z,28.00
2018-02-04T06:45:34.206Z,32.00
2018-02-04T06:46:34.218Z,40.00
2018-02-04T06:47:34.232Z,44.00
2018-02-04T06:48:34.240Z,48.00
2018-02-04T06:49:34.252Z,56.00
2018-02-04T06:50:34.262Z,64.00
2018-02-04T06:51:34.277Z,72.00
2018-02-04T06:52:34.288Z,84.00
2018-02-04T06:53:34.316Z,96.00
2018-02-04T06:54:34.312Z,104.00
2018-02-04T06:55:34.324Z,112.00
2018-02-04T06:56:34.335Z,124.00
2018-02-04T06:57:34.347Z,136.00
2018-02-04T06:58:34.357Z,152.00
2018-02-04T06:59:34.368Z,164.00
2018-02-04T07:00:34.380Z,176.00
2018-02-04T07:01:34.392Z,184.00
2018-02-04T07:02:34.403Z,176.00
2018-02-04T07:03:34.414Z,168.00
2018-02-04T07:04:34.428Z,164.00
2018-02-04T07:05:34.437Z,156.00
2018-02-04T07:06:34.456Z,156.00
2018-02-04T07:07:34.466Z,156.00
2018-02-04T07:08:34.474Z,152.00
2018-02-04T07:09:34.489Z,148.00
2018-02-04T07:10:34.498Z,144.00
2018-02-04T07:11:34.512Z,156.00
2018-02-04T07:12:34.521Z,172.00
2018-02-04T07:13:34.536Z,192.00
2018-02-04T07:14:34.543Z,212.00
2018-02-04T07:15:34.556Z,236.00
2018-02-04T07:16:34.577Z,248.00
2018-02-04T07:17:34.579Z,248.00
2018-02-04T07:18:34.597Z,252.00
2018-02-04T07:19:34.605Z,252.00
2018-02-04T07:20:34.613Z,256.00
2018-02-04T07:21:34.631Z,256.00
2018-02-04T07:22:34.650Z,252.00
2018-02-04T07:23:34.652Z,268.00
2018-02-04T07:24:34.663Z,324.00
2018-02-04T07:25:34.677Z,368.00
2018-02-04T07:26:34.688Z,404.00
2018-02-04T07:27:34.697Z,476.00
2018-02-04T07:28:34.714Z,524.00
2018-02-04T07:29:34.723Z,524.00
2018-02-04T07:30:34.734Z,532.00
2018-02-04T07:31:34.752Z,540.00
2018-02-04T07:32:34.755Z,556.00
2018-02-04T07:33:34.769Z,580.00
2018-02-04T07:34:34.780Z,568.00
2018-02-04T07:35:34.795Z,548.00
2018-02-04T07:36:34.804Z,588.00
2018-02-04T07:37:34.815Z,608.00
2018-02-04T07:38:34.826Z,616.00
2018-02-04T07:39:34.840Z,660.00
2018-02-04T07:40:34.849Z,688.00
2018-02-04T07:41:34.861Z,736.00
2018-02-04T07:42:34.874Z,768.00
2018-02-04T07:43:34.886Z,776.00
2018-02-04T07:44:34.896Z,756.00
2018-02-04T07:45:34.917Z,764.00
2018-02-04T07:46:34.920Z,776.00
2018-02-04T07:47:34.931Z,784.00
2018-02-04T07:48:34.942Z,788.00
2018-02-04T07:49:34.957Z,796.00
2018-02-04T07:50:34.965Z,800.00
2018-02-04T07:51:34.977Z,816.00
2018-02-04T07:52:34.990Z,824.00
2018-02-04T07:53:34.997Z,824.00
2018-02-04T07:54:35.008Z,864.00
2018-02-04T07:55:35.021Z,852.00
2018-02-04T07:56:35.032Z,844.00
2018-02-04T07:57:35.045Z,856.00
2018-02-04T07:58:35.056Z,856.00
2018-02-04T07:59:35.066Z,868.00
2018-02-04T08:00:35.077Z,936.00
2018-02-04T08:01:35.088Z,988.00
2018-02-04T08:02:35.111Z,1036.00
2018-02-04T08:03:35.112Z,1084.00
2018-02-04T08:04:35.123Z,1136.00
2018-02-04T08:05:35.135Z,1196.00
2018-02-04T08:06:35.146Z,1232.00
2018-02-04T08:07:35.159Z,1288.00
2018-02-04T08:08:35.169Z,1352.00
2018-02-04T08:09:35.182Z,1396.00
2018-02-04T08:10:35.192Z,1416.00
2018-02-04T08:11:35.202Z,1480.00
2018-02-04T08:12:35.218Z,1576.00
2018-02-04T08:13:35.227Z,1660.00
2018-02-04T08:14:35.239Z,1768.00
2018-02-04T08:15:35.251Z,1884.00
2018-02-04T08:16:35.273Z,1976.00
2018-02-04T08:17:35.273Z,2044.00
2018-02-04T08:18:35.284Z,2196.00
2018-02-04T08:19:35.297Z,2320.00
2018-02-04T08:20:35.307Z,2420.00
2018-02-04T08:21:35.324Z,2524.00
2018-02-04T08:22:35.331Z,2644.00
2018-02-04T08:23:35.344Z,2776.00
2018-02-04T08:24:35.355Z,2932.00
2018-02-04T08:25:35.363Z,3108.00
2018-02-04T08:26:35.375Z,3284.00
2018-02-04T08:27:35.389Z,3448.00
2018-02-04T08:28:35.398Z,3576.00
2018-02-04T08:29:35.466Z,3704.00
2018-02-04T08:30:35.420Z,3804.00
2018-02-04T08:31:35.434Z,3920.00
2018-02-04T08:32:35.444Z,4020.00
2018-02-04T08:33:35.460Z,4148.00
2018-02-04T08:34:35.468Z,4280.00
2018-02-04T08:35:35.534Z,4388.00
2018-02-04T08:36:35.492Z,4480.00
2018-02-04T08:37:35.511Z,4564.00
2018-02-04T08:38:35.513Z,4644.00
2018-02-04T08:39:35.576Z,4728.00
2018-02-04T08:40:35.572Z,4796.00
2018-02-04T08:41:35.549Z,4948.00
2018-02-04T08:42:35.566Z,5088.00
2018-02-04T08:43:35.961Z,5172.00
2018-02-04T08:44:35.609Z,5220.00
2018-02-04T08:45:35.594Z,5232.00
2018-02-04T08:46:35.626Z,5296.00
2018-02-04T08:47:35.616Z,5372.00
2018-02-04T08:48:35.629Z,5460.00
2018-02-04T08:49:35.640Z,5440.00
2018-02-04T08:50:35.654Z,5420.00
2018-02-04T08:51:35.664Z,5416.00
2018-02-04T08:52:35.675Z,5436.00
2018-02-04T08:53:35.688Z,5408.00
2018-02-04T08:54:35.697Z,5444.00
2018-02-04T08:55:35.713Z,5540.00
2018-02-04T08:56:35.726Z,5664.00
2018-02-04T08:57:35.733Z,5736.00
2018-02-04T08:58:35.747Z,5768.00
2018-02-04T08:59:35.768Z,5892.00
2018-02-04T09:00:35.770Z,6088.00
2018-02-04T09:01:35.780Z,6276.00
2018-02-04T09:02:35.814Z,6504.00
2018-02-04T09:03:35.827Z,6776.00
2018-02-04T09:04:35.824Z,6932.00
2018-02-04T09:05:35.845Z,7016.00
2018-02-04T09:06:35.846Z,7048.00
2018-02-04T09:07:35.859Z,7064.00
2018-02-04T09:08:35.869Z,7052.00
2018-02-04T09:09:35.886Z,7032.00
2018-02-04T09:10:35.895Z,6920.00
2018-02-04T09:11:35.955Z,6888.00
2018-02-04T09:12:35.920Z,6836.00
2018-02-04T09:13:35.927Z,6808.00
2018-02-04T09:14:35.940Z,6908.00
2018-02-04T09:15:35.954Z,7424.00
2018-02-04T09:16:35.965Z,7812.00
2018-02-04T09:17:35.977Z,7972.00
2018-02-04T09:18:36.009Z,7940.00
2018-02-04T09:19:36.022Z,8064.00
2018-02-04T09:20:36.013Z,8256.00
2018-02-04T09:21:36.028Z,8360.00
2018-02-04T09:22:36.041Z,8280.00
2018-02-04T09:23:36.054Z,8016.00
2018-02-04T09:24:36.063Z,8152.00
2018-02-04T09:25:36.118Z,8240.00
2018-02-04T09:26:36.081Z,8360.00
2018-02-04T09:27:36.426Z,8680.00
2018-02-04T09:28:36.116Z,8544.00
2018-02-04T09:29:36.123Z,7956.00
2018-02-04T09:30:36.132Z,7520.00
2018-02-04T09:31:36.146Z,7112.00
2018-02-04T09:32:36.167Z,6608.00
2018-02-04T09:33:36.177Z,6724.00
2018-02-04T09:34:36.188Z,6760.00
2018-02-04T09:35:36.183Z,7072.00
2018-02-04T09:36:36.202Z,7268.00
2018-02-04T09:39:42.905Z,7416.00
2018-02-04T09:40:42.874Z,8112.00
2018-02-04T09:42:35.836Z,8984.00
2018-02-04T09:43:35.806Z,8500.00
2018-02-04T09:44:35.830Z,8584.00
2018-02-04T09:45:35.844Z,8808.00
2018-02-04T09:46:35.845Z,8220.00
2018-02-04T09:47:35.856Z,8752.00
2018-02-04T09:48:35.868Z,8884.00
2018-02-04T09:49:35.882Z,8492.00
2018-02-04T09:50:35.899Z,8236.00
2018-02-04T09:51:35.912Z,8864.00
2018-02-04T09:52:35.926Z,8336.00
2018-02-04T09:53:35.926Z,7796.00
2018-02-04T09:54:35.940Z,7556.00
2018-02-04T09:55:35.958Z,7984.00
2018-02-04T09:56:35.964Z,8224.00
2018-02-04T09:57:35.979Z,8156.00
2018-02-04T09:58:36.043Z,8176.00
2018-02-04T09:59:36.001Z,9100.00
2018-02-04T10:00:36.015Z,9780.00
2018-02-04T10:01:36.025Z,9488.00
2018-02-04T10:02:36.041Z,9640.00
2018-02-04T10:03:36.050Z,10048.00
2018-02-04T10:04:36.062Z,9824.00
2018-02-04T10:05:36.072Z,9604.00
2018-02-04T10:06:36.082Z,9092.00
2018-02-04T10:07:36.097Z,8720.00
2018-02-04T10:08:36.109Z,9060.00
2018-02-04T10:09:36.122Z,8912.00
2018-02-04T10:10:36.134Z,8824.00
2018-02-04T10:11:36.146Z,8700.00
2018-02-04T10:12:36.157Z,8344.00
2018-02-04T10:13:36.177Z,7860.00
2018-02-04T10:14:36.187Z,7692.00
2018-02-04T10:15:36.195Z,7884.00
2018-02-04T10:16:36.204Z,8228.00
2018-02-04T10:17:36.221Z,8420.00
2018-02-04T10:18:36.262Z,7852.00
2018-02-04T10:19:36.249Z,7740.00
2018-02-04T10:20:36.256Z,7876.00
2018-02-04T10:21:36.272Z,7620.00
2018-02-04T10:22:36.307Z,7768.00
2018-02-04T10:23:36.295Z,8052.00
2018-02-04T10:24:36.308Z,8056.00
2018-02-04T10:25:36.318Z,8364.00
2018-02-04T10:26:36.333Z,8648.00
2018-02-04T10:27:36.345Z,8876.00
2018-02-04T10:28:36.361Z,8016.00
2018-02-04T10:29:36.374Z,7104.00
2018-02-04T10:30:36.385Z,6484.00
2018-02-04T10:31:36.399Z,6812.00
2018-02-04T10:32:36.412Z,7420.00
2018-02-04T10:33:36.423Z,7824.00
2018-02-04T10:34:36.432Z,7780.00
2018-02-04T10:35:36.447Z,7752.00
2018-02-04T10:36:36.457Z,7676.00
2018-02-04T10:37:36.471Z,6696.00
2018-02-04T10:38:36.488Z,5844.00
2018-02-04T10:39:36.497Z,5420.00
2018-02-04T10:40:36.516Z,5160.00
2018-02-04T10:41:36.538Z,5200.00
2018-02-04T10:42:36.546Z,5384.00
2018-02-04T10:43:36.548Z,5396.00
2018-02-04T10:44:36.557Z,5756.00
2018-02-04T10:45:36.570Z,6320.00
2018-02-04T10:46:36.583Z,6912.00
2018-02-04T10:47:36.594Z,6912.00
2018-02-04T10:48:36.609Z,6656.00
2018-02-04T10:49:36.619Z,6708.00
2018-02-04T10:50:36.631Z,6608.00
2018-02-04T10:51:36.645Z,6452.00
2018-02-04T10:52:36.661Z,6652.00
2018-02-04T10:53:36.667Z,7152.00
2018-02-04T10:54:36.683Z,7360.00
2018-02-04T10:55:36.718Z,7136.00
2018-02-04T10:56:36.705Z,7148.00
2018-02-04T10:57:36.726Z,7300.00
2018-02-04T10:58:36.734Z,7376.00
2018-02-04T10:59:36.743Z,7420.00
2018-02-04T11:00:36.757Z,7560.00
2018-02-04T11:01:36.765Z,7888.00
2018-02-04T11:02:36.783Z,8184.00
2018-02-04T11:03:36.794Z,8404.00
2018-02-04T11:04:36.806Z,8460.00
2018-02-04T11:05:36.818Z,8656.00
2018-02-04T11:06:36.829Z,8856.00
2018-02-04T11:07:36.844Z,8884.00
2018-02-04T11:08:36.856Z,8840.00
2018-02-04T11:09:36.872Z,8796.00
2018-02-04T11:10:36.884Z,8692.00
2018-02-04T11:11:36.926Z,8652.00
2018-02-04T11:12:36.903Z,9016.00
2018-02-04T11:13:36.915Z,9088.00
2018-02-04T11:14:36.928Z,9380.00
2018-02-04T11:15:36.943Z,9448.00
2018-02-04T11:16:36.957Z,9548.00
2018-02-04T11:17:36.966Z,9424.00
2018-02-04T11:18:36.981Z,9352.00
2018-02-04T11:19:36.993Z,9484.00
2018-02-04T11:20:37.008Z,9768.00
2018-02-04T11:21:37.017Z,10460.00
2018-02-04T11:22:37.030Z,10584.00
2018-02-04T11:23:37.043Z,10412.00
2018-02-04T11:24:37.056Z,10080.00
2018-02-04T11:25:37.065Z,9872.00
2018-02-04T11:26:37.089Z,9556.00
2018-02-04T11:27:37.091Z,9460.00
2018-02-04T11:28:37.105Z,9532.00
2018-02-04T11:29:37.119Z,10040.00
2018-02-04T11:30:37.136Z,10364.00
2018-02-04T11:31:37.144Z,10560.00
2018-02-04T11:32:37.161Z,10760.00
2018-02-04T11:33:37.170Z,10884.00
2018-02-04T11:34:37.186Z,10980.00
2018-02-04T11:35:37.199Z,10744.00
2018-02-04T11:36:37.222Z,10716.00
2018-02-04T11:37:37.221Z,10648.00
2018-02-04T11:38:37.241Z,10820.00
2018-02-04T11:39:37.250Z,10672.00
2018-02-04T11:40:37.260Z,10416.00
2018-02-04T11:41:37.274Z,9956.00
2018-02-04T11:42:37.290Z,10216.00
2018-02-04T11:43:37.303Z,10412.00
2018-02-04T11:44:37.315Z,10408.00
2018-02-04T11:45:37.328Z,10140.00
2018-02-04T11:46:37.342Z,9960.00
2018-02-04T11:47:37.356Z,9644.00
2018-02-04T11:48:37.369Z,9608.00
2018-02-04T11:49:37.380Z,9484.00
2018-02-04T11:50:37.394Z,9144.00
2018-02-04T11:51:37.402Z,9064.00
2018-02-04T11:52:37.417Z,9492.00
2018-02-04T11:53:37.434Z,9664.00
2018-02-04T11:54:37.441Z,9340.00
2018-02-04T11:55:37.460Z,8828.00
2018-02-04T11:56:37.468Z,8304.00
2018-02-04T11:57:37.481Z,8104.00
2018-02-04T11:58:37.495Z,7672.00
2018-02-04T11:59:37.510Z,7768.00
2018-02-04T12:00:37.518Z,7736.00
2018-02-04T12:01:37.531Z,7688.00
2018-02-04T12:02:37.547Z,7616.00
2018-02-04T12:03:37.559Z,7480.00
2018-02-04T12:04:37.570Z,7248.00
2018-02-04T12:05:37.585Z,7244.00
2018-02-04T12:06:37.597Z,7332.00
2018-02-04T12:07:38.304Z,7424.00
2018-02-04T12:08:37.622Z,7636.00
2018-02-04T12:09:37.636Z,7972.00
2018-02-04T12:10:37.649Z,8000.00
2018-02-04T12:11:37.660Z,8132.00
2018-02-04T12:12:37.676Z,7924.00
2018-02-04T12:13:37.691Z,8004.00
2018-02-04T12:14:37.703Z,7876.00
2018-02-04T12:15:37.711Z,7676.00
2018-02-04T12:16:37.720Z,7224.00
2018-02-04T12:17:37.738Z,7152.00
2018-02-04T12:18:37.748Z,7240.00
2018-02-04T12:19:37.757Z,7232.00
2018-02-04T12:20:37.774Z,7044.00
2018-02-04T12:21:37.786Z,6696.00
2018-02-04T12:22:37.798Z,6616.00
2018-02-04T12:23:37.808Z,6708.00
2018-02-04T12:24:37.820Z,6896.00
2018-02-04T12:25:37.837Z,7108.00
2018-02-04T12:26:37.848Z,6960.00
2018-02-04T12:27:37.871Z,6956.00
2018-02-04T12:28:37.870Z,7184.00
2018-02-04T12:29:37.886Z,7188.00
2018-02-04T12:30:37.904Z,7268.00
2018-02-04T12:31:37.913Z,7456.00
2018-02-04T12:32:37.933Z,7452.00
2018-02-04T12:33:37.935Z,7376.00
2018-02-04T12:34:37.948Z,7172.00
2018-02-04T12:35:37.962Z,6836.00
2018-02-04T12:36:37.975Z,6848.00
2018-02-04T12:37:37.986Z,6708.00
2018-02-04T12:38:37.996Z,6492.00
2018-02-04T12:39:38.007Z,6444.00
2018-02-04T12:40:38.021Z,6428.00
2018-02-04T12:41:38.038Z,6460.00
2018-02-04T12:42:38.048Z,6652.00
2018-02-04T12:43:38.059Z,6956.00
2018-02-04T12:44:38.107Z,7148.00
2018-02-04T12:45:38.082Z,7176.00
2018-02-04T12:46:38.098Z,6968.00
2018-02-04T12:47:38.118Z,6908.00